KMML

Southwest Minnesota Regional Marshall / Ryan Field Airport

Marshall, Minnesota, USA
METAR KMML 201956Z AUTO 01010KT 9SM OVC024 22/17 A3000 RMK AO2 SLP156 T02170172
Observed Flight Rules
Aug-20 @ 19:56 UTC (34 minutes ago) Marginal Visual Flight Rules
Wind Visibility Clouds
10° at 10 knots 9 miles
  • Overcast at 2,400' AGL
Temperatures Readings
Current 22°C / 72°F
Dewpoint 17°C / 63°F
Humidity 73%
Altimeter 30" Hg
Pressure 1015.6 hPa
Elevation 359
METAR KMML 201956Z AUTO 01010KT 9SM OVC024 22/17 A3000 RMK AO2 SLP156 T02170172
Observed Flight Rules
Aug-20 @ 19:56 UTC
(34 minutes ago)
MVFR
Wind Visibility
10° at 10 knots 9 miles
Clouds
  • Overcast at 2,400' AGL
Temperature Dewpoint
22°C / 72°F 17°C / 63°F
Humidity Altimeter Pressure
73% 30" Hg 1015.6 hPa